Aérodrome :
LOGIN :

S'inscrire | Disclaimer

   EN    FR    IT 

 










Légende :    VFR   VFR Marginal   IFR   IFR Intensif   IFR Très Intensif
Visi : 
Plafond : 
>= 8 km
>= 3000ft
5 à 8 km
1000 à 3000 ft
1500m à 5 km
500 à 1000 ft
800 à 1500m
200 à 500 ft
< 800m
< 200 ft
Symboles :   Orages  Brouillard  Fortes neiges  Fortes précipitations  Vent > 20 kt
SIGMETs :   Divers  Orages  Givrage  Turbulence  Onde Orograph.  Cendres Volcan.






- Altitude de l'aérodrome : 913 ft


LFSX - Luxeuil

DERNIER METAR :
  • 150830Z AUTO 23017KT 9999 BKN041 OVC047 12/07 Q1007

METARs EXPIRÉS :
  • 150800Z AUTO 23018KT 9999 BKN049/// OVC066/// ///TCU 12/07 Q1006
  • 150730Z AUTO 22014KT CAVOK 12/08 Q1006
  • 150700Z AUTO 23015KT CAVOK 12/08 Q1006
  • 150630Z AUTO 24010KT CAVOK 12/08 Q1006
  • 150600Z AUTO 24013KT 9999 FEW041 BKN048 OVC058 12/08 Q1005

Prévision TAF périmée.



MET'MAP, la Météo Aéronautique d'un coup d'oeil ! - Copyright ORBIFLY Décembre 2007 - Disclaimer

ORBIFLY MET'MAP TEAM :

Programmation & Développement : Alexandra Zaïnal
Sur une idée originale de : Baudouin d'Aumeries
Assistance à la programmation : Marc-Olivier Méhu
Soutien technique & logistique : Manuel Goepfert

Contact : metmap@orbifly.com




SOURCES & CREDITS :

   NOAA